Time;durP1;ratioP1;P1;durP2;ratioP2;P2;SDS_P1;SDS_P2;PMS_P1;PMS_P2;Temp;Humidity;BMP_temperature;BMP_pressure;BME280_temperature;BME280_humidity;BME280_pressure;Samples;Min_cycle;Max_cycle;Signal;HPM_P1;HPM_P2
2022/05/09 00:01:08;;;;;;;13.40;4.30;;;9.10;99.90;;;;;;4992262;28;20723;-84
2022/05/09 00:03:36;;;;;;;14.97;4.40;;;9.10;99.90;;;;;;4992173;28;20229;-85
2022/05/09 00:06:02;;;;;;;15.93;4.87;;;9.00;99.90;;;;;;4991320;28;20262;-83
2022/05/09 00:08:29;;;;;;;13.50;4.40;;;9.00;99.90;;;;;;4990967;28;20264;-83
2022/05/09 00:10:56;;;;;;;13.73;4.10;;;9.00;99.90;;;;;;4991302;28;20354;-84
2022/05/09 00:13:23;;;;;;;16.07;4.37;;;9.00;99.90;;;;;;4974329;28;20210;-83
2022/05/09 00:15:52;;;;;;;14.27;4.30;;;9.00;99.90;;;;;;4987543;28;20236;-83
2022/05/09 00:18:20;;;;;;;14.40;4.40;;;8.90;99.90;;;;;;4987866;28;20220;-83
2022/05/09 00:20:47;;;;;;;12.40;4.23;;;8.90;99.90;;;;;;4991044;28;20213;-82
2022/05/09 00:23:14;;;;;;;15.40;4.87;;;8.90;99.90;;;;;;4986104;28;20210;-84
2022/05/09 00:25:42;;;;;;;14.33;5.00;;;8.80;99.90;;;;;;4973268;28;20254;-83
2022/05/09 00:28:09;;;;;;;13.90;4.73;;;8.80;99.90;;;;;;4990938;28;20274;-84
2022/05/09 00:30:36;;;;;;;11.03;5.00;;;8.80;99.90;;;;;;4990804;28;20308;-84
2022/05/09 00:33:04;;;;;;;15.90;5.63;;;8.80;99.90;;;;;;4989933;28;20287;-85
2022/05/09 00:35:30;;;;;;;9.67;5.07;;;8.60;99.90;;;;;;4973534;28;20243;-84
2022/05/09 00:37:57;;;;;;;11.73;4.20;;;8.80;99.90;;;;;;4974272;28;20600;-86
2022/05/09 00:40:24;;;;;;;10.90;4.10;;;8.70;99.90;;;;;;4990699;28;20200;-85
2022/05/09 00:42:53;;;;;;;16.93;4.70;;;8.60;99.90;;;;;;4973326;28;20674;-82
2022/05/09 00:45:24;;;;;;;15.00;5.07;;;8.50;99.90;;;;;;4991218;28;20210;-84
2022/05/09 00:47:51;;;;;;;10.40;4.30;;;8.50;99.90;;;;;;4990904;28;20646;-86
2022/05/09 00:50:31;;;;;;;14.57;4.43;;;8.50;99.90;;;;;;4990208;28;20239;-83
2022/05/09 00:53:08;;;;;;;14.87;4.70;;;8.50;99.90;;;;;;4988329;28;20202;-84
2022/05/09 00:55:42;;;;;;;15.73;5.30;;;8.30;99.90;;;;;;4989465;28;20304;-85
2022/05/09 00:58:35;;;;;;;24.70;5.47;;;8.30;99.90;;;;;;4991449;28;20213;-84
2022/05/09 01:01:03;;;;;;;11.67;4.27;;;8.30;99.90;;;;;;4981561;28;20238;-83
2022/05/09 01:03:38;;;;;;;19.83;5.67;;;8.30;99.90;;;;;;4988404;28;20307;-84
2022/05/09 01:06:05;;;;;;;14.50;4.60;;;8.20;99.90;;;;;;4988867;28;20769;-85
2022/05/09 01:08:32;;;;;;;9.30;4.20;;;8.30;99.90;;;;;;4973502;28;20225;-85
2022/05/09 01:11:01;;;;;;;16.30;4.80;;;8.20;99.90;;;;;;4973010;28;20207;-84
2022/05/09 01:13:33;;;;;;;11.60;4.50;;;8.20;99.90;;;;;;4969809;28;20265;-83
2022/05/09 01:16:02;;;;;;;12.90;5.33;;;8.10;99.90;;;;;;4986876;28;20234;-84
2022/05/09 01:18:29;;;;;;;15.60;5.43;;;8.10;99.90;;;;;;4989512;28;20222;-82
2022/05/09 01:20:56;;;;;;;10.73;4.87;;;8.10;99.90;;;;;;4991205;28;20227;-83
2022/05/09 01:23:23;;;;;;;14.50;4.97;;;8.00;99.90;;;;;;4991052;28;20210;-83
2022/05/09 01:25:52;;;;;;;11.13;5.30;;;8.00;99.90;;;;;;4974321;28;20323;-84
2022/05/09 01:28:19;;;;;;;14.60;4.90;;;8.00;99.90;;;;;;4990663;28;20261;-84
2022/05/09 01:31:02;;;;;;;15.37;5.10;;;8.00;99.90;;;;;;4972752;28;20241;-82
2022/05/09 01:33:39;;;;;;;15.27;4.97;;;7.90;99.90;;;;;;4984574;28;20232;-83
2022/05/09 01:36:17;;;;;;;15.17;5.87;;;7.90;99.90;;;;;;4994769;28;20258;-83
2022/05/09 01:38:49;;;;;;;14.43;4.87;;;7.80;99.90;;;;;;4996042;28;20210;-82
2022/05/09 01:41:16;;;;;;;13.00;4.83;;;7.80;99.90;;;;;;4992800;28;20203;-83
2022/05/09 01:43:51;;;;;;;12.67;5.40;;;7.80;99.90;;;;;;4996519;28;20199;-84
2022/05/09 01:46:23;;;;;;;15.63;5.77;;;7.80;99.90;;;;;;4997616;28;20207;-83
2022/05/09 01:51:38;;;;;;;15.80;4.93;;;7.70;99.90;;;;;;4988111;28;20683;-82
2022/05/09 01:54:05;;;;;;;14.37;4.83;;;7.60;99.90;;;;;;4975365;28;20209;-84
2022/05/09 01:56:35;;;;;;;11.80;5.00;;;7.40;99.90;;;;;;4993532;28;20254;-86
2022/05/09 01:59:04;;;;;;;10.93;4.63;;;7.60;99.90;;;;;;4971407;28;20266;-83
2022/05/09 02:01:40;;;;;;;11.60;4.80;;;7.60;99.90;;;;;;4971338;28;20305;-83
2022/05/09 02:04:07;;;;;;;12.70;5.10;;;7.60;99.90;;;;;;4969800;28;20230;-84
2022/05/09 02:06:34;;;;;;;15.50;5.23;;;7.50;99.90;;;;;;4973287;28;20210;-82
2022/05/09 02:09:01;;;;;;;16.33;5.80;;;7.50;99.90;;;;;;4997817;28;20277;-84
2022/05/09 02:11:34;;;;;;;12.90;4.33;;;7.50;99.90;;;;;;4984326;28;20252;-83
2022/05/09 02:14:02;;;;;;;16.17;4.80;;;7.30;99.90;;;;;;5000923;28;20206;-83
2022/05/09 02:16:33;;;;;;;14.70;5.00;;;7.40;99.90;;;;;;4980686;28;20215;-82
2022/05/09 02:19:04;;;;;;;23.87;5.80;;;7.40;99.90;;;;;;5001897;28;20237;-83
2022/05/09 02:21:31;;;;;;;15.50;5.50;;;7.40;99.90;;;;;;5006229;28;20210;-84
2022/05/09 02:23:58;;;;;;;13.37;5.63;;;7.30;99.90;;;;;;5012082;28;20202;-84
2022/05/09 02:26:25;;;;;;;12.17;5.83;;;7.20;99.90;;;;;;5013332;28;20194;-81
2022/05/09 02:28:52;;;;;;;11.10;5.00;;;7.20;99.90;;;;;;4995535;28;20218;-84
2022/05/09 02:31:20;;;;;;;15.60;5.00;;;7.20;99.90;;;;;;5007527;28;20526;-85
2022/05/09 02:33:48;;;;;;;12.33;5.67;;;7.10;99.90;;;;;;4989885;28;20299;-85
2022/05/09 02:36:15;;;;;;;13.97;5.40;;;7.10;99.90;;;;;;4997593;28;20228;-84
2022/05/09 02:38:42;;;;;;;17.83;6.07;;;7.10;99.90;;;;;;4989071;28;20269;-82
2022/05/09 02:41:09;;;;;;;15.80;4.90;;;7.10;99.90;;;;;;5000104;28;20204;-83
2022/05/09 02:43:35;;;;;;;16.40;5.33;;;7.00;99.90;;;;;;4991658;28;20208;-82
2022/05/09 02:46:05;;;;;;;12.90;5.27;;;7.00;99.90;;;;;;4993377;28;20203;-82
2022/05/09 02:48:35;;;;;;;15.10;5.87;;;7.00;99.90;;;;;;4987805;28;20289;-83
2022/05/09 02:51:04;;;;;;;14.93;5.33;;;6.90;99.90;;;;;;4988392;28;20266;-83
2022/05/09 02:53:32;;;;;;;18.63;5.30;;;6.90;99.90;;;;;;4987013;28;20395;-83
2022/05/09 02:55:59;;;;;;;17.63;5.30;;;6.90;99.90;;;;;;4988552;28;20727;-83
2022/05/09 02:58:26;;;;;;;12.83;4.73;;;6.80;99.90;;;;;;4988686;28;20277;-83
2022/05/09 03:00:53;;;;;;;17.77;5.97;;;6.90;99.90;;;;;;4969413;28;20261;-84
2022/05/09 03:06:06;;;;;;;15.70;5.50;;;6.80;99.90;;;;;;4988701;28;20744;-83
2022/05/09 03:08:33;;;;;;;15.00;4.90;;;6.80;99.90;;;;;;4972165;28;20653;-84
2022/05/09 03:11:00;;;;;;;17.00;5.40;;;6.70;99.90;;;;;;4972051;28;20213;-83
2022/05/09 03:13:28;;;;;;;14.07;4.90;;;6.70;99.90;;;;;;4989628;28;20822;-82
2022/05/09 03:15:58;;;;;;;15.40;5.23;;;6.80;99.90;;;;;;4971624;28;20236;-83
2022/05/09 03:18:25;;;;;;;15.77;5.57;;;6.60;99.90;;;;;;4984080;28;20208;-85
2022/05/09 03:20:53;;;;;;;15.33;5.60;;;6.60;99.90;;;;;;4988861;28;20211;-83
2022/05/09 03:23:21;;;;;;;14.93;5.87;;;6.60;99.90;;;;;;4987474;28;20231;-82
2022/05/09 03:25:47;;;;;;;15.77;5.20;;;6.50;99.90;;;;;;4988478;28;20350;-85
2022/05/09 03:28:22;;;;;;;13.70;5.60;;;6.50;99.90;;;;;;4988737;28;20270;-84
2022/05/09 03:30:51;;;;;;;16.47;5.40;;;6.50;99.90;;;;;;4987915;28;20212;-82
2022/05/09 03:33:20;;;;;;;14.13;5.73;;;6.40;99.90;;;;;;4987456;28;20215;-81
2022/05/09 03:35:47;;;;;;;16.17;6.30;;;6.40;99.90;;;;;;4987985;28;20263;-83
2022/05/09 03:38:13;;;;;;;9.60;5.10;;;6.40;99.90;;;;;;4985115;28;20291;-83
2022/05/09 03:40:41;;;;;;;16.17;5.80;;;6.40;99.90;;;;;;4988361;28;20216;-84
2022/05/09 03:43:08;;;;;;;12.10;5.30;;;6.30;99.90;;;;;;4986927;28;20262;-84
2022/05/09 03:45:36;;;;;;;16.93;6.43;;;6.30;99.90;;;;;;4985512;28;21033;-84
2022/05/09 03:48:03;;;;;;;13.97;5.43;;;6.30;99.90;;;;;;4987260;28;20206;-83
2022/05/09 03:50:30;;;;;;;17.07;5.43;;;6.20;99.90;;;;;;4988743;28;20770;-84
2022/05/09 03:52:57;;;;;;;10.50;4.83;;;6.20;99.90;;;;;;4988063;28;20769;-83
2022/05/09 03:55:24;;;;;;;17.03;5.40;;;6.20;99.90;;;;;;4988426;28;20231;-83
2022/05/09 03:57:56;;;;;;;15.87;5.30;;;6.20;99.90;;;;;;4987445;28;20208;-84
2022/05/09 04:00:27;;;;;;;15.73;6.30;;;6.20;99.90;;;;;;4984672;28;20672;-83
2022/05/09 04:02:54;;;;;;;15.83;5.83;;;6.30;99.90;;;;;;4988289;28;20208;-84
2022/05/09 04:05:21;;;;;;;17.87;6.40;;;6.10;99.90;;;;;;4988281;28;20382;-86
2022/05/09 04:07:50;;;;;;;15.23;5.57;;;6.10;99.90;;;;;;4968018;28;20734;-83
2022/05/09 04:10:24;;;;;;;15.37;5.07;;;6.10;99.90;;;;;;4952091;28;20217;-82
2022/05/09 04:12:51;;;;;;;15.87;6.23;;;6.10;99.90;;;;;;4988175;28;20219;-83
2022/05/09 04:18:06;;;;;;;9.63;5.53;;;6.10;99.90;;;;;;4991249;28;20208;-83
2022/05/09 04:20:33;;;;;;;15.37;5.60;;;6.10;99.90;;;;;;4974810;28;20231;-82
2022/05/09 04:23:00;;;;;;;14.90;5.43;;;6.00;99.90;;;;;;4992302;28;20230;-82
2022/05/09 04:25:31;;;;;;;16.80;5.60;;;6.10;99.90;;;;;;4975110;28;20286;-85
2022/05/09 04:28:04;;;;;;;14.37;6.20;;;6.10;99.90;;;;;;4970864;28;20213;-85
2022/05/09 04:30:34;;;;;;;14.73;5.33;;;6.20;99.90;;;;;;4973866;28;20237;-84
2022/05/09 04:33:02;;;;;;;18.13;7.00;;;6.20;99.90;;;;;;4974277;28;20772;-84
2022/05/09 04:35:29;;;;;;;16.13;6.53;;;6.20;99.90;;;;;;4992010;28;20243;-84
2022/05/09 04:37:57;;;;;;;19.43;7.07;;;6.30;99.90;;;;;;4990436;28;20260;-84
2022/05/09 04:40:28;;;;;;;16.80;6.33;;;6.30;99.90;;;;;;4991168;28;20309;-84
2022/05/09 04:42:57;;;;;;;21.37;6.73;;;6.30;99.90;;;;;;4988113;28;20216;-84
2022/05/09 04:45:25;;;;;;;14.20;5.50;;;6.50;99.90;;;;;;4974275;28;20209;-84
2022/05/09 04:47:52;;;;;;;18.37;6.43;;;6.40;99.90;;;;;;4989764;28;20245;-85
2022/05/09 04:50:23;;;;;;;12.90;6.03;;;6.70;99.90;;;;;;4991177;28;20231;-83
2022/05/09 04:52:49;;;;;;;12.00;5.83;;;6.50;99.90;;;;;;4991441;28;20208;-84
2022/05/09 04:55:17;;;;;;;15.20;5.47;;;6.90;99.90;;;;;;4991399;28;20242;-85
2022/05/09 04:57:44;;;;;;;18.67;6.90;;;6.00;99.90;;;;;;4973732;28;20319;-84
2022/05/09 05:00:15;;;;;;;13.63;6.57;;;6.70;99.90;;;;;;4990027;28;20195;-85
2022/05/09 05:02:42;;;;;;;16.40;6.20;;;6.70;99.90;;;;;;4989360;28;20212;-84
2022/05/09 05:05:10;;;;;;;19.80;6.83;;;6.80;99.90;;;;;;4991072;28;20257;-84
2022/05/09 05:07:37;;;;;;;16.73;5.93;;;6.80;99.90;;;;;;4974048;28;20205;-84
2022/05/09 05:10:05;;;;;;;15.20;5.87;;;7.00;99.90;;;;;;4988132;28;20685;-85
2022/05/09 05:12:32;;;;;;;16.47;6.27;;;6.90;99.90;;;;;;4989806;28;20212;-84
2022/05/09 05:15:00;;;;;;;19.67;6.67;;;6.90;99.90;;;;;;4990341;28;20220;-84
2022/05/09 05:17:27;;;;;;;14.60;6.33;;;7.00;99.90;;;;;;4989560;28;20298;-82
2022/05/09 05:19:54;;;;;;;13.37;6.13;;;7.10;99.90;;;;;;4995371;28;20256;-84
2022/05/09 05:22:21;;;;;;;17.77;6.77;;;7.30;99.90;;;;;;4993520;28;20279;-84
2022/05/09 05:24:52;;;;;;;19.03;7.17;;;7.20;99.90;;;;;;4989632;28;20669;-86
2022/05/09 05:27:23;;;;;;;15.53;6.87;;;7.30;99.90;;;;;;4990311;28;20252;-84
2022/05/09 05:29:53;;;;;;;13.27;7.00;;;7.30;99.90;;;;;;4972021;28;20214;-84
2022/05/09 05:32:23;;;;;;;17.43;6.33;;;7.30;99.90;;;;;;4972056;28;20582;-84
2022/05/09 05:34:50;;;;;;;22.43;6.90;;;7.50;99.90;;;;;;4973222;28;20253;-84
2022/05/09 05:37:18;;;;;;;13.73;7.03;;;7.60;99.90;;;;;;4973787;28;20211;-84
2022/05/09 05:39:46;;;;;;;22.80;8.30;;;7.70;99.90;;;;;;4989444;28;20987;-84
2022/05/09 05:42:17;;;;;;;17.37;7.33;;;7.70;99.90;;;;;;4983053;28;20200;-84
2022/05/09 05:44:46;;;;;;;24.27;8.33;;;7.90;99.90;;;;;;4988257;28;20277;-83
2022/05/09 05:47:15;;;;;;;19.50;7.70;;;8.00;99.90;;;;;;4988615;28;20235;-84
2022/05/09 05:49:43;;;;;;;15.10;6.97;;;8.30;99.90;;;;;;4986276;28;20239;-84
2022/05/09 05:52:11;;;;;;;18.83;6.97;;;9.30;99.90;;;;;;4990725;28;20262;-84
2022/05/09 05:54:42;;;;;;;17.27;6.23;;;10.60;99.90;;;;;;4976805;28;20717;-85
2022/05/09 05:57:21;;;;;;;14.17;6.20;;;12.00;99.90;;;;;;4990762;28;20595;-84
2022/05/09 05:59:53;;;;;;;10.90;5.73;;;13.50;99.90;;;;;;4986142;28;20203;-85
2022/05/09 06:02:20;;;;;;;13.50;5.37;;;14.90;99.90;;;;;;4985854;28;20683;-85
2022/05/09 06:04:47;;;;;;;12.85;5.55;;;15.90;99.90;;;;;;4989578;28;20215;-84
2022/05/09 06:07:15;;;;;;;13.68;5.57;;;17.10;99.90;;;;;;4989220;28;20211;-83
2022/05/09 06:09:45;;;;;;;13.40;5.30;;;18.00;99.90;;;;;;4988706;28;20204;-83
2022/05/09 06:12:14;;;;;;;17.08;5.55;;;18.40;99.90;;;;;;4986294;28;20298;-86
2022/05/09 06:14:41;;;;;;;18.55;5.50;;;19.60;99.90;;;;;;4986286;28;20259;-83
2022/05/09 06:17:10;;;;;;;11.38;5.00;;;20.20;99.90;;;;;;4975094;28;20253;-86
2022/05/09 06:19:38;;;;;;;13.10;5.43;;;21.60;99.90;;;;;;4972350;28;20243;-82
2022/05/09 06:22:05;;;;;;;14.93;5.38;;;21.00;99.90;;;;;;4982856;28;20673;-88
2022/05/09 06:24:40;;;;;;;13.23;5.15;;;21.70;99.90;;;;;;4988091;28;20232;-88
2022/05/09 06:27:07;;;;;;;14.35;5.57;;;22.30;99.90;;;;;;4986892;28;20261;-87
2022/05/09 06:29:42;;;;;;;13.07;5.35;;;;;;;;;;4986266;28;20245;-86
2022/05/09 06:32:19;;;;;;;10.90;4.97;;;22.50;99.40;;;;;;4983355;28;20211;-86
2022/05/09 06:34:45;;;;;;;14.23;5.25;;;22.90;98.00;;;;;;4987831;28;20306;-86
2022/05/09 06:37:25;;;;;;;16.27;5.97;;;23.30;96.80;;;;;;4990308;28;20251;-86
2022/05/09 06:39:52;;;;;;;13.32;5.95;;;23.60;94.50;;;;;;4985886;28;20574;-84
2022/05/09 06:42:19;;;;;;;11.32;4.68;;;23.60;93.90;;;;;;4973138;28;20204;-83
2022/05/09 06:44:46;;;;;;;10.88;4.63;;;23.80;93.40;;;;;;4986375;28;20663;-81
2022/05/09 06:47:13;;;;;;;11.90;4.80;;;24.20;92.50;;;;;;4985102;28;20253;-84
2022/05/09 06:49:40;;;;;;;10.10;4.53;;;24.40;91.60;;;;;;4982007;28;20226;-83
2022/05/09 06:52:07;;;;;;;12.13;4.95;;;24.60;90.90;;;;;;4983771;28;20265;-82
2022/05/09 06:54:34;;;;;;;18.35;5.35;;;24.80;90.00;;;;;;4979072;28;20216;-80
2022/05/09 06:57:01;;;;;;;11.45;4.68;;;25.10;88.00;;;;;;4980612;28;20273;-80
2022/05/09 06:59:31;;;;;;;12.10;4.93;;;25.20;87.90;;;;;;4969031;28;20258;-82
2022/05/09 07:01:59;;;;;;;10.57;4.25;;;25.40;86.00;;;;;;4984019;28;20213;-81
2022/05/09 07:04:27;;;;;;;12.35;5.03;;;25.60;84.40;;;;;;4984295;28;20233;-80
2022/05/09 07:06:54;;;;;;;11.10;4.85;;;25.70;82.70;;;;;;4967001;28;20663;-79
2022/05/09 07:09:20;;;;;;;9.23;4.35;;;25.50;82.40;;;;;;4984036;28;20207;-80
2022/05/09 07:11:50;;;;;;;11.90;4.78;;;25.60;81.40;;;;;;4987320;28;20226;-82
2022/05/09 07:14:19;;;;;;;11.73;4.82;;;25.40;80.90;;;;;;4973317;28;20230;-82
2022/05/09 07:16:46;;;;;;;12.38;5.25;;;25.30;80.60;;;;;;4962729;28;20227;-81
2022/05/09 07:19:16;;;;;;;12.93;5.10;;;25.40;80.30;;;;;;4981566;28;20273;-87
2022/05/09 07:21:43;;;;;;;10.25;4.65;;;25.50;80.00;;;;;;4970935;28;20203;-84
2022/05/09 07:24:11;;;;;;;9.43;4.38;;;25.50;80.10;;;;;;4977566;28;20363;-81
2022/05/09 07:26:40;;;;;;;10.30;4.55;;;25.50;79.30;;;;;;4984048;28;20622;-82
2022/05/09 07:29:09;;;;;;;9.77;5.00;;;25.70;79.10;;;;;;4981941;28;20730;-80
2022/05/09 07:31:35;;;;;;;12.88;4.90;;;25.70;78.70;;;;;;4981296;28;20223;-79
2022/05/09 07:34:02;;;;;;;10.10;4.78;;;25.90;78.40;;;;;;4981701;28;20250;-80
2022/05/09 07:36:29;;;;;;;11.43;5.25;;;26.10;77.70;;;;;;4982482;28;20238;-80
2022/05/09 07:38:56;;;;;;;11.43;5.10;;;26.20;77.70;;;;;;4976038;28;20805;-79
2022/05/09 07:41:23;;;;;;;12.15;5.03;;;;;;;;;;4982301;28;20302;-80
2022/05/09 07:43:50;;;;;;;18.95;6.25;;;26.80;75.00;;;;;;4983942;28;20625;-79
2022/05/09 07:46:17;;;;;;;13.27;5.30;;;26.90;75.00;;;;;;4982886;28;20195;-80
2022/05/09 07:49:04;;;;;;;9.50;5.22;;;26.90;74.20;;;;;;4984933;28;20218;-78
2022/05/09 07:51:31;;;;;;;10.30;5.13;;;26.90;73.00;;;;;;4987488;28;20242;-79
2022/05/09 07:53:57;;;;;;;13.98;4.95;;;26.90;72.30;;;;;;4985596;28;20286;-79
2022/05/09 07:56:24;;;;;;;14.25;5.30;;;27.00;72.00;;;;;;4987692;28;20223;-81
2022/05/09 07:58:51;;;;;;;11.40;4.80;;;27.00;71.90;;;;;;4986010;28;20211;-79
2022/05/09 08:01:18;;;;;;;11.18;5.25;;;26.90;71.70;;;;;;4970677;28;20512;-80
2022/05/09 08:03:45;;;;;;;11.27;4.43;;;26.60;72.80;;;;;;4982999;28;20263;-83
2022/05/09 08:06:12;;;;;;;12.48;5.45;;;26.60;72.90;;;;;;4984404;28;20207;-80
2022/05/09 08:08:40;;;;;;;9.93;5.22;;;26.60;72.70;;;;;;4985328;28;20574;-83
2022/05/09 08:11:11;;;;;;;10.15;4.72;;;26.70;71.90;;;;;;4988061;28;20204;-82
2022/05/09 08:13:41;;;;;;;13.38;5.18;;;26.80;71.30;;;;;;4988303;28;20218;-81
2022/05/09 08:16:09;;;;;;;10.13;4.55;;;27.00;71.90;;;;;;4971443;28;20305;-81
2022/05/09 08:18:36;;;;;;;12.70;4.82;;;27.00;71.20;;;;;;4984280;28;20220;-82
2022/05/09 08:21:04;;;;;;;11.07;4.35;;;27.10;70.50;;;;;;4985795;28;20214;-81
2022/05/09 08:23:31;;;;;;;11.00;4.82;;;27.10;69.60;;;;;;4984027;28;20211;-80
2022/05/09 08:26:02;;;;;;;10.18;5.28;;;27.00;69.00;;;;;;4983781;28;20254;-80
2022/05/09 08:28:30;;;;;;;9.63;4.50;;;27.00;69.60;;;;;;4969415;28;20265;-80
2022/05/09 08:30:57;;;;;;;9.07;4.68;;;27.20;68.50;;;;;;4983998;28;20207;-80
2022/05/09 08:33:28;;;;;;;9.82;4.78;;;27.40;66.50;;;;;;4985494;28;20212;-80
2022/05/09 08:35:55;;;;;;;10.10;5.32;;;27.60;67.00;;;;;;4970686;28;20218;-79
2022/05/09 08:38:22;;;;;;;10.75;4.43;;;27.40;68.10;;;;;;4985462;28;20203;-81
2022/05/09 08:40:59;;;;;;;12.80;5.03;;;27.20;68.20;;;;;;4967058;28;20215;-81
2022/05/09 08:43:53;;;;;;;10.15;4.65;;;27.10;69.60;;;;;;4985740;28;20218;-82
2022/05/09 08:46:40;;;;;;;9.27;4.38;;;26.80;67.70;;;;;;4984600;28;20214;-81
2022/05/09 08:49:23;;;;;;;12.15;5.25;;;26.70;68.10;;;;;;4988807;28;20589;-81
2022/05/09 08:52:21;;;;;;;10.40;4.28;;;26.80;67.40;;;;;;4987165;28;20207;-80
2022/05/09 08:54:49;;;;;;;12.52;4.95;;;27.10;65.40;;;;;;4981755;28;20471;-80
2022/05/09 08:57:22;;;;;;;9.95;4.47;;;26.90;65.40;;;;;;4985208;28;20258;-79
2022/05/09 08:59:57;;;;;;;12.68;4.90;;;26.60;65.70;;;;;;4982005;28;20653;-80
2022/05/09 09:02:54;;;;;;;9.13;4.38;;;26.60;65.70;;;;;;4983863;28;20276;-81
2022/05/09 09:05:24;;;;;;;10.98;4.45;;;26.60;66.30;;;;;;4985507;28;20223;-83
2022/05/09 09:08:38;;;;;;;8.13;3.92;;;26.60;64.70;;;;;;4971741;28;20211;-81
2022/05/09 09:11:44;;;;;;;10.30;3.50;;;26.60;63.60;;;;;;4964923;28;20208;-84
2022/05/09 09:14:30;;;;;;;11.35;4.03;;;26.60;62.20;;;;;;4947946;28;20199;-81
2022/05/09 09:17:27;;;;;;;8.57;3.60;;;26.70;61.90;;;;;;4984276;28;20714;-80
2022/05/09 09:20:08;;;;;;;6.55;3.53;;;26.60;60.60;;;;;;4982235;28;20266;-83
2022/05/09 09:22:52;;;;;;;7.07;3.03;;;26.30;61.50;;;;;;4979396;28;20281;-80
2022/05/09 09:25:19;;;;;;;6.00;3.00;;;26.10;61.10;;;;;;4982519;28;20226;-82
2022/05/09 09:27:49;;;;;;;7.68;3.03;;;26.00;61.90;;;;;;4986299;28;20203;-82
2022/05/09 09:30:22;;;;;;;8.73;3.38;;;25.90;61.50;;;;;;4983442;28;20207;-80
2022/05/09 09:33:03;;;;;;;9.40;3.00;;;25.90;61.60;;;;;;4981821;28;20208;-81
2022/05/09 09:35:45;;;;;;;7.85;3.15;;;25.80;59.90;;;;;;4983595;28;20258;-83
2022/05/09 09:38:42;;;;;;;9.57;3.35;;;25.70;60.60;;;;;;4984547;28;20249;-83
2022/05/09 09:41:23;;;;;;;10.18;3.47;;;25.50;60.80;;;;;;4968861;28;20203;-84
2022/05/09 09:43:59;;;;;;;8.25;2.90;;;25.30;61.50;;;;;;4983994;28;20207;-80
2022/05/09 09:46:26;;;;;;;5.72;2.50;;;25.30;61.90;;;;;;4984393;28;20199;-81
2022/05/09 09:49:07;;;;;;;6.85;2.60;;;25.40;60.30;;;;;;4971172;28;20234;-82
2022/05/09 09:51:46;;;;;;;8.63;2.95;;;25.60;59.60;;;;;;4982762;28;20207;-80
2022/05/09 09:54:21;;;;;;;7.88;2.70;;;25.60;58.90;;;;;;4985160;28;20218;-81
2022/05/09 09:56:48;;;;;;;5.40;2.40;;;25.60;60.70;;;;;;4984720;28;20309;-81
2022/05/09 09:59:21;;;;;;;6.30;2.92;;;25.70;60.50;;;;;;4986176;28;20195;-80
2022/05/09 10:02:14;;;;;;;8.05;2.63;;;25.70;61.40;;;;;;4981175;28;20202;-80
2022/05/09 10:04:43;;;;;;;6.25;3.17;;;25.80;60.00;;;;;;4986921;28;20215;-81
2022/05/09 10:07:16;;;;;;;8.48;2.50;;;25.80;61.70;;;;;;4984479;28;20207;-80
2022/05/09 10:10:10;;;;;;;8.27;2.65;;;25.90;60.50;;;;;;4983548;28;20195;-80
2022/05/09 10:12:48;;;;;;;7.18;2.80;;;25.90;59.90;;;;;;4984360;28;20215;-80
2022/05/09 10:15:27;;;;;;;7.90;2.90;;;25.90;59.80;;;;;;4985187;28;20213;-82
2022/05/09 10:17:56;;;;;;;6.70;2.65;;;25.90;60.00;;;;;;4984003;28;20285;-81
2022/05/09 10:20:33;;;;;;;10.88;3.03;;;25.90;59.70;;;;;;4980839;28;20579;-81
2022/05/09 10:26:24;;;;;;;8.88;3.38;;;25.80;59.80;;;;;;4986572;28;20210;-78
2022/05/09 10:28:58;;;;;;;11.30;3.33;;;25.70;59.80;;;;;;4985105;28;20215;-80
2022/05/09 10:31:49;;;;;;;7.28;2.75;;;25.60;59.70;;;;;;4984884;28;21105;-80
2022/05/09 10:34:27;;;;;;;9.00;3.38;;;25.60;59.50;;;;;;4984267;28;20215;-80
2022/05/09 10:37:00;;;;;;;7.10;3.38;;;25.50;59.50;;;;;;4985481;28;20737;-79
2022/05/09 10:39:35;;;;;;;6.70;2.90;;;25.50;59.60;;;;;;4982433;28;20211;-80
2022/05/09 10:42:07;;;;;;;10.63;3.35;;;25.50;60.20;;;;;;4981655;28;20210;-81
2022/05/09 10:45:04;;;;;;;6.88;3.10;;;25.60;62.40;;;;;;4984807;28;20238;-80
2022/05/09 10:48:08;;;;;;;7.90;3.42;;;25.60;60.40;;;;;;4983845;28;20211;-80
2022/05/09 10:50:49;;;;;;;8.05;3.25;;;25.50;60.70;;;;;;4972626;28;20694;-82
2022/05/09 10:53:29;;;;;;;7.80;2.50;;;25.40;60.00;;;;;;4986847;28;20207;-80
2022/05/09 10:56:14;;;;;;;6.68;2.92;;;25.30;60.00;;;;;;4986681;28;20651;-81
2022/05/09 10:59:04;;;;;;;5.95;2.55;;;25.20;61.30;;;;;;4986108;28;20203;-82
2022/05/09 11:01:50;;;;;;;8.05;2.92;;;25.10;61.20;;;;;;4982373;28;21300;-82
2022/05/09 11:04:18;;;;;;;8.07;2.97;;;25.00;60.50;;;;;;4985577;28;20219;-80
2022/05/09 11:07:16;;;;;;;9.23;2.75;;;25.00;59.80;;;;;;4983491;28;20873;-82
2022/05/09 11:10:14;;;;;;;6.25;2.50;;;24.90;59.40;;;;;;4976945;28;20206;-81
2022/05/09 11:12:59;;;;;;;7.20;2.80;;;24.90;59.50;;;;;;4982094;28;20567;-81
2022/05/09 11:15:52;;;;;;;8.93;2.90;;;25.10;59.50;;;;;;4987462;28;20536;-82
2022/05/09 11:18:52;;;;;;;7.93;2.70;;;25.50;60.00;;;;;;4970505;28;20227;-84
2022/05/09 11:21:38;;;;;;;6.32;3.05;;;25.40;60.70;;;;;;4982534;28;20202;-81
2022/05/09 11:24:32;;;;;;;8.55;2.83;;;25.40;59.90;;;;;;4981346;28;20235;-81
2022/05/09 11:27:08;;;;;;;7.60;2.40;;;25.40;60.00;;;;;;4980956;28;20258;-82
2022/05/09 11:30:16;;;;;;;7.85;2.97;;;25.40;60.00;;;;;;4967193;28;20207;-80
2022/05/09 11:32:44;;;;;;;9.32;2.60;;;25.30;60.10;;;;;;4982736;28;20195;-80
2022/05/09 11:35:33;;;;;;;7.07;3.00;;;25.20;59.80;;;;;;4971539;28;20581;-82
2022/05/09 11:38:18;;;;;;;5.70;3.13;;;25.20;60.80;;;;;;4982474;28;20239;-83
2022/05/09 11:41:00;;;;;;;8.10;2.67;;;25.30;61.40;;;;;;4984385;28;20664;-83
2022/05/09 11:43:44;;;;;;;5.78;2.28;;;25.40;60.80;;;;;;4964977;28;20227;-81
2022/05/09 11:46:42;;;;;;;7.03;2.55;;;25.40;60.20;;;;;;4982123;28;20669;-83
2022/05/09 11:49:40;;;;;;;7.43;2.58;;;25.40;60.70;;;;;;4962880;28;20742;-82
2022/05/09 11:52:37;;;;;;;6.72;3.05;;;25.50;60.20;;;;;;4978945;28;20237;-81
2022/05/09 11:55:18;;;;;;;6.35;2.40;;;25.60;59.80;;;;;;4982464;28;20242;-81
2022/05/09 11:57:55;;;;;;;3.63;2.42;;;25.70;60.00;;;;;;4982471;28;20238;-80
2022/05/09 12:00:35;;;;;;;4.72;2.72;;;25.70;61.50;;;;;;4981752;28;20199;-80
2022/05/09 12:03:11;;;;;;;5.57;2.40;;;25.70;60.70;;;;;;4982054;28;20787;-82
2022/05/09 12:06:02;;;;;;;6.75;2.67;;;25.90;62.10;;;;;;4983725;28;20234;-80
2022/05/09 12:08:47;;;;;;;7.88;2.53;;;26.00;61.00;;;;;;4979265;28;20270;-81
2022/05/09 12:11:22;;;;;;;8.98;2.50;;;26.10;64.30;;;;;;4969686;28;20240;-83
2022/05/09 12:13:51;;;;;;;12.60;2.70;;;26.20;60.40;;;;;;4985488;28;20580;-80
2022/05/09 12:16:35;;;;;;;5.50;2.42;;;26.20;59.50;;;;;;4986870;28;20651;-87
2022/05/09 12:19:05;;;;;;;5.93;2.72;;;26.20;59.80;;;;;;4985979;28;20238;-86
2022/05/09 12:21:37;;;;;;;6.55;2.90;;;26.20;60.10;;;;;;4970422;28;20567;-88
2022/05/09 12:24:23;;;;;;;9.23;2.85;;;26.20;60.30;;;;;;4995209;28;20821;-83
2022/05/09 12:26:53;;;;;;;7.93;2.63;;;26.10;59.90;;;;;;4989196;28;20207;-82
2022/05/09 12:29:23;;;;;;;15.13;2.83;;;26.20;60.30;;;;;;4986313;28;20210;-82
2022/05/09 12:31:57;;;;;;;6.75;3.00;;;26.10;60.50;;;;;;4992461;28;20634;-82
2022/05/09 12:34:43;;;;;;;9.85;2.80;;;26.00;60.50;;;;;;4979394;28;20227;-84
2022/05/09 12:37:14;;;;;;;7.32;2.75;;;26.10;61.00;;;;;;4977020;28;20271;-85
2022/05/09 12:39:55;;;;;;;9.30;2.53;;;26.00;61.70;;;;;;4995255;28;20776;-85
2022/05/09 12:42:36;;;;;;;7.10;2.72;;;25.70;62.20;;;;;;4975736;28;20203;-87
2022/05/09 12:45:10;;;;;;;6.30;2.22;;;25.70;62.10;;;;;;4971226;28;20675;-82
2022/05/09 12:47:39;;;;;;;4.63;2.40;;;25.80;62.80;;;;;;4986121;28;20245;-83
2022/05/09 12:50:08;;;;;;;6.65;2.50;;;26.00;61.60;;;;;;4978461;28;20292;-82
2022/05/09 12:52:40;;;;;;;4.28;2.10;;;26.20;61.00;;;;;;4982873;28;20211;-83
2022/05/09 12:57:53;;;;;;;6.85;2.50;;;26.70;62.20;;;;;;4986776;28;20305;-81
2022/05/09 13:00:28;;;;;;;5.47;2.25;;;27.00;61.30;;;;;;4986596;28;20199;-83
2022/05/09 13:03:16;;;;;;;5.22;2.70;;;27.00;60.40;;;;;;4969510;28;20271;-82
2022/05/09 13:05:44;;;;;;;5.20;2.20;;;27.00;60.30;;;;;;4988784;28;20222;-88
2022/05/09 13:08:14;;;;;;;5.43;2.40;;;27.00;60.00;;;;;;4985647;28;20207;-85
2022/05/09 13:10:56;;;;;;;4.88;2.25;;;26.90;59.60;;;;;;4983962;28;20281;-85
2022/05/09 13:13:32;;;;;;;9.23;2.40;;;26.90;60.10;;;;;;4982018;28;20233;-84
2022/05/09 13:16:03;;;;;;;7.45;2.53;;;26.90;60.30;;;;;;4985566;28;20299;-82
2022/05/09 13:18:31;;;;;;;7.15;2.15;;;27.10;59.60;;;;;;4992601;28;20245;-83
2022/05/09 13:21:03;;;;;;;6.03;2.50;;;27.00;59.60;;;;;;5008452;28;20187;-82
2022/05/09 13:23:37;;;;;;;9.15;3.15;;;26.80;59.90;;;;;;5005499;28;20206;-84
2022/05/09 13:26:10;;;;;;;9.45;2.75;;;26.80;59.80;;;;;;4998709;28;20210;-81
2022/05/09 13:28:51;;;;;;;7.38;2.53;;;26.70;60.00;;;;;;4997922;28;20206;-83